Clackamas, Oregon
Current Conditions -  °F | °C
As of 3:53 AM on Monday 20 Oct 2014 (Local Time) from KTTD Reporting Station
Overcast Overcast  
Wind Chill: 16°   Ceiling: 6000
Heat Index: 16°   Visibility: 10mi
Dew Point: 14°   Wind: 5mph
Humidity: 87%   Direction: 70°ENE
Pressure: 29.72"   Gusts: NA
Location:  45.41°N, 122.55°W
Report Text: KTTD 201053Z AUTO 07004KT 10SM BKN060 OVC075 16/14 A2972 RMK AO2 RAE40 SLP064 P0000 T01610139
Loading
Personal Weather Stations






























Interactive Weather Map
Tropical Storm Tracking
New forecast layout! Learn more

10-Day Weather Forecast

Advertisements
Track Severe Weather on mobile